Time;durP1;ratioP1;P1;durP2;ratioP2;P2;SDS_P1;SDS_P2;PMS_P1;PMS_P2;Temp;Humidity;BMP_temperature;BMP_pressure;BME280_temperature;BME280_humidity;BME280_pressure;Samples;Min_cycle;Max_cycle;Signal;HPM_P1;HPM_P2
2023/01/17 00:10:22;;;;;;;13.10;4.22;;;;;;;1.20;100.00;98229.59;10492660;28;20040;-76
2023/01/17 00:15:22;;;;;;;3.13;1.63;;;;;;;1.05;100.00;98247.88;10480038;28;20063;-78
2023/01/17 00:26:04;;;;;;;8.25;2.08;;;;;;;0.62;100.00;98249.41;10505471;28;20057;-78
2023/01/17 01:34:08;;;;;;;5.88;2.65;;;;;;;0.93;100.00;98374.41;10486520;28;20439;-77
2023/01/17 01:39:08;;;;;;;4.40;1.23;;;;;;;0.91;100.00;98388.91;10480029;28;20044;-77
2023/01/17 01:44:47;;;;;;;5.35;1.70;;;;;;;0.85;100.00;98390.38;10485004;28;20068;-77
2023/01/17 01:49:47;;;;;;;7.13;2.35;;;;;;;0.84;100.00;98393.78;10484496;28;20032;-77
2023/01/17 01:54:57;;;;;;;10.80;3.97;;;;;;;0.86;100.00;98397.28;10491860;28;20028;-77
2023/01/17 01:59:59;;;;;;;20.73;3.83;;;;;;;0.84;100.00;98409.22;10501205;28;20037;-77
2023/01/17 02:04:59;;;;;;;6.57;3.70;;;;;;;0.79;100.00;98421.00;10463378;28;20044;-77
2023/01/17 02:10:00;;;;;;;7.43;3.92;;;;;;;0.73;100.00;98428.44;10499643;28;20420;-77
2023/01/17 02:15:01;;;;;;;5.93;3.40;;;;;;;0.60;100.00;98429.56;10434551;28;20041;-78
2023/01/17 02:20:04;;;;;;;5.88;3.17;;;;;;;0.44;100.00;98443.34;10488511;28;20374;-78
2023/01/17 02:25:17;;;;;;;4.88;3.20;;;;;;;0.20;100.00;98446.50;10484342;28;20492;-78
2023/01/17 02:30:27;;;;;;;4.78;2.88;;;;;;;0.01;100.00;98456.66;10513639;28;20127;-78
2023/01/17 02:35:37;;;;;;;4.72;2.80;;;;;;;-0.26;100.00;98455.34;10448993;28;20044;-77
2023/01/17 02:40:50;;;;;;;5.40;2.10;;;;;;;-0.40;100.00;98462.31;10466278;28;20518;-77
2023/01/17 02:45:51;;;;;;;3.75;2.20;;;;;;;-0.45;100.00;98472.38;10444378;28;20131;-77
2023/01/17 02:51:22;;;;;;;6.03;1.85;;;;;;;-0.49;100.00;98478.16;10522940;28;20040;-78
2023/01/17 02:56:59;;;;;;;4.10;2.10;;;;;;;-0.47;100.00;98484.25;10477237;28;20047;-78
2023/01/17 03:02:31;;;;;;;3.95;1.25;;;;;;;-0.42;100.00;98492.19;10492161;28;20047;-78
2023/01/17 03:07:31;;;;;;;4.23;2.00;;;;;;;-0.31;100.00;98503.06;10474194;28;20041;-78
2023/01/17 03:12:33;;;;;;;3.30;2.05;;;;;;;-0.22;100.00;98497.50;10484107;28;20551;-78
2023/01/17 03:17:34;;;;;;;7.85;2.92;;;;;;;-0.19;100.00;98505.38;10524049;28;20028;-78
2023/01/17 03:22:34;;;;;;;4.30;2.22;;;;;;;-0.14;100.00;98516.78;10522239;28;20072;-77
2023/01/17 03:27:35;;;;;;;7.97;3.40;;;;;;;-0.07;100.00;98523.16;10479572;28;20124;-78
2023/01/17 03:32:35;;;;;;;9.98;4.35;;;;;;;-0.06;100.00;98528.34;10471026;28;20047;-78
2023/01/17 03:37:36;;;;;;;8.93;4.45;;;;;;;-0.05;100.00;98519.84;10473662;28;20075;-78
2023/01/17 03:42:36;;;;;;;13.95;5.72;;;;;;;0.03;100.00;98520.25;10512867;28;20040;-77
2023/01/17 03:47:37;;;;;;;8.70;3.88;;;;;;;-0.04;100.00;98519.03;10512295;28;20072;-77
2023/01/17 03:52:37;;;;;;;7.07;4.38;;;;;;;-0.05;100.00;98524.97;10473197;28;20170;-78
2023/01/17 03:57:38;;;;;;;8.32;4.03;;;;;;;-0.07;100.00;98516.28;10504856;28;20800;-77
2023/01/17 04:02:38;;;;;;;7.15;4.38;;;;;;;-0.10;100.00;98513.56;10520407;28;20044;-78
2023/01/17 04:07:40;;;;;;;9.00;4.65;;;;;;;-0.12;100.00;98522.88;10512034;28;20051;-78
2023/01/17 04:12:40;;;;;;;15.20;6.60;;;;;;;-0.11;100.00;98523.78;10494969;28;20126;-78
2023/01/17 04:17:41;;;;;;;13.13;6.75;;;;;;;-0.17;100.00;98511.47;10527689;28;20484;-78
2023/01/17 04:22:43;;;;;;;14.98;8.32;;;;;;;-0.23;100.00;98511.16;10503858;28;20038;-78
2023/01/17 04:27:43;;;;;;;14.38;9.95;;;;;;;-0.33;100.00;98507.25;10528947;28;20044;-77
2023/01/17 04:32:44;;;;;;;21.48;10.32;;;;;;;-0.52;100.00;98511.41;10477056;28;20067;-77
2023/01/17 04:37:44;;;;;;;20.33;11.80;;;;;;;-0.53;100.00;98511.31;10478168;28;20413;-77
2023/01/17 04:42:45;;;;;;;18.48;11.68;;;;;;;-0.56;100.00;98508.56;10459703;28;20036;-77
2023/01/17 04:47:45;;;;;;;19.50;10.82;;;;;;;-0.49;100.00;98513.22;10471139;28;20048;-78
2023/01/17 04:52:46;;;;;;;19.35;10.55;;;;;;;-0.47;100.00;98507.38;10500705;28;20119;-77
2023/01/17 04:57:46;;;;;;;16.75;10.35;;;;;;;-0.71;100.00;98509.50;10500497;28;20491;-78
2023/01/17 05:02:47;;;;;;;19.25;10.43;;;;;;;-0.99;100.00;98507.13;10516954;28;20079;-77
2023/01/17 05:07:54;;;;;;;18.83;11.13;;;;;;;-1.29;100.00;98507.19;10508486;28;20054;-78
2023/01/17 05:12:58;;;;;;;17.35;9.85;;;;;;;-1.44;100.00;98507.16;10442940;28;20044;-77
2023/01/17 05:17:58;;;;;;;23.13;10.73;;;;;;;-1.51;100.00;98511.09;10418159;28;20065;-78
2023/01/17 05:22:59;;;;;;;19.03;9.90;;;;;;;-1.61;100.00;98519.91;10416377;28;20112;-78
2023/01/17 05:27:59;;;;;;;17.37;12.27;;;;;;;-1.66;100.00;98523.88;10441915;28;20121;-77
2023/01/17 05:33:00;;;;;;;24.90;12.18;;;;;;;-1.73;100.00;98535.50;10441200;28;20496;-78
2023/01/17 05:38:00;;;;;;;19.90;12.68;;;;;;;-1.82;100.00;98538.38;10404971;28;20123;-78
2023/01/17 05:43:04;;;;;;;24.40;14.48;;;;;;;-1.88;100.00;98544.84;10419281;28;20047;-78
2023/01/17 05:48:05;;;;;;;20.15;14.35;;;;;;;-1.99;100.00;98551.88;10442780;28;20045;-78
2023/01/17 05:53:07;;;;;;;23.45;14.15;;;;;;;-2.03;100.00;98549.91;10437637;28;20041;-76
2023/01/17 05:58:17;;;;;;;24.48;13.93;;;;;;;-2.12;100.00;98556.25;10440064;28;20048;-77
2023/01/17 06:03:17;;;;;;;23.88;13.98;;;;;;;-2.19;100.00;98569.50;10440247;28;20049;-77
2023/01/17 06:08:18;;;;;;;26.27;16.83;;;;;;;-2.17;100.00;98552.53;10425321;28;20135;-78
2023/01/17 06:13:22;;;;;;;23.75;15.70;;;;;;;-2.12;100.00;98547.69;10498256;28;20522;-78
2023/01/17 06:18:22;;;;;;;30.05;17.55;;;;;;;-2.22;100.00;98562.53;10522622;28;20049;-77
2023/01/17 06:23:23;;;;;;;30.60;18.93;;;;;;;-2.41;100.00;98565.63;10490660;28;20060;-78
2023/01/17 06:28:23;;;;;;;41.93;21.03;;;;;;;-2.38;100.00;98568.38;10457310;28;20098;-78
2023/01/17 06:33:24;;;;;;;34.40;18.43;;;;;;;-2.57;100.00;98560.34;10507705;28;20032;-78
2023/01/17 06:38:26;;;;;;;30.30;19.13;;;;;;;-2.55;100.00;98566.44;10480163;28;20550;-78
2023/01/17 06:43:27;;;;;;;;;;;;;;;-2.61;100.00;98573.72;10483701;28;20044;-78
2023/01/17 06:48:27;;;;;;;32.78;18.63;;;;;;;-2.61;100.00;98555.81;10481261;28;19924;-78
2023/01/17 06:53:28;;;;;;;35.93;22.60;;;;;;;-2.39;100.00;98566.59;10487203;28;20386;-77
2023/01/17 06:58:28;;;;;;;33.13;21.73;;;;;;;-2.26;100.00;98567.34;10491218;28;20141;-77
2023/01/17 07:03:30;;;;;;;25.83;15.13;;;;;;;-2.22;100.00;98565.09;10519809;28;20043;-78
2023/01/17 07:08:31;;;;;;;39.30;23.02;;;;;;;-2.27;100.00;98565.56;10503992;28;20507;-77
2023/01/17 07:13:33;;;;;;;40.20;20.93;;;;;;;-2.28;100.00;98572.41;10498763;28;20036;-77
2023/01/17 07:18:33;;;;;;;;;;;;;;;-2.32;100.00;98579.78;10471506;28;20044;-77
2023/01/17 07:23:34;;;;;;;34.97;20.08;;;;;;;-2.36;100.00;98577.03;10514047;28;19920;-77
2023/01/17 07:28:34;;;;;;;49.00;25.70;;;;;;;-2.39;100.00;98578.53;10499607;28;20119;-78
2023/01/17 07:33:35;;;;;;;64.57;24.90;;;;;;;-2.48;100.00;98573.72;10488678;28;20388;-78
2023/01/17 07:38:35;;;;;;;52.13;30.43;;;;;;;-2.58;100.00;98576.50;10511673;28;20036;-79
2023/01/17 07:43:36;;;;;;;38.90;23.03;;;;;;;-2.59;100.00;98574.72;10489489;28;20127;-78
2023/01/17 07:48:36;;;;;;;30.33;17.03;;;;;;;-2.51;100.00;98574.41;10484354;28;20128;-77
2023/01/17 07:53:37;;;;;;;40.07;23.37;;;;;;;-2.56;100.00;98570.69;10498183;28;20128;-79
2023/01/17 07:58:37;;;;;;;34.80;23.40;;;;;;;-2.58;100.00;98572.28;10495641;28;20100;-81
2023/01/17 08:03:38;;;;;;;26.33;17.20;;;;;;;-2.61;100.00;98577.19;10501700;28;20064;-78
2023/01/17 08:08:39;;;;;;;44.03;26.13;;;;;;;-2.61;100.00;98581.41;10500100;28;20040;-77
2023/01/17 08:13:40;;;;;;;37.70;22.40;;;;;;;-2.64;100.00;98570.97;10502920;28;20128;-77
2023/01/17 08:18:41;;;;;;;45.60;26.43;;;;;;;-2.66;100.00;98574.31;10491179;28;20177;-79
2023/01/17 08:23:50;;;;;;;46.05;24.08;;;;;;;-2.58;100.00;98574.81;10523002;28;20266;-78
2023/01/17 08:28:55;;;;;;;39.20;25.48;;;;;;;-2.45;100.00;98579.03;10489051;28;20097;-79
2023/01/17 08:33:56;;;;;;;40.92;25.77;;;;;;;-2.31;100.00;98586.69;10495407;28;20032;-80
2023/01/17 08:38:56;;;;;;;41.70;22.03;;;;;;;-2.23;100.00;98588.03;10495037;28;20789;-80
2023/01/17 08:43:57;;;;;;;36.97;22.20;;;;;;;-2.14;100.00;98591.16;10496007;28;20111;-79
2023/01/17 08:48:58;;;;;;;39.30;24.13;;;;;;;-1.99;100.00;98600.59;10496109;28;20043;-79
2023/01/17 08:53:59;;;;;;;45.38;23.88;;;;;;;-1.87;100.00;98611.59;10510073;28;20129;-78
2023/01/17 08:59:01;;;;;;;40.60;23.07;;;;;;;-1.75;100.00;98605.41;10511842;28;20115;-78
2023/01/17 09:04:02;;;;;;;38.95;26.17;;;;;;;-1.77;100.00;98602.78;10529466;28;20044;-78
2023/01/17 09:09:04;;;;;;;33.03;18.87;;;;;;;-1.73;100.00;98611.53;10493771;28;20051;-79
2023/01/17 09:14:04;;;;;;;27.65;17.33;;;;;;;-1.56;100.00;98613.41;10510806;28;20380;-78
2023/01/17 09:19:05;;;;;;;31.98;19.60;;;;;;;-1.37;100.00;98620.53;10529378;28;20032;-78
2023/01/17 09:24:05;;;;;;;33.03;18.27;;;;;;;-1.11;100.00;98623.75;10524844;28;20480;-78
2023/01/17 09:29:06;;;;;;;30.70;14.75;;;;;;;-0.62;100.00;98617.03;10510029;28;20040;-78
2023/01/17 09:34:07;;;;;;;26.15;14.85;;;;;;;-0.20;100.00;98625.34;10493423;28;20056;-79
2023/01/17 09:39:08;;;;;;;21.60;13.70;;;;;;;0.04;100.00;98624.91;10492621;28;20044;-78
2023/01/17 09:44:12;;;;;;;19.88;12.05;;;;;;;0.38;100.00;98626.69;10504492;28;20032;-78
2023/01/17 09:49:16;;;;;;;18.02;11.27;;;;;;;0.70;100.00;98630.03;10526596;28;20043;-78
2023/01/17 09:54:22;;;;;;;15.30;8.68;;;;;;;0.97;100.00;98621.91;10451844;28;20037;-78
2023/01/17 09:59:35;;;;;;;16.17;7.40;;;;;;;1.50;100.00;98621.88;10461643;28;20039;-78
2023/01/17 10:05:13;;;;;;;18.95;7.68;;;;;;;3.47;100.00;98604.50;10507051;28;20464;-79
2023/01/17 10:10:41;;;;;;;14.77;6.05;;;;;;;6.81;100.00;98598.97;10468480;28;20051;-79
2023/01/17 10:15:51;;;;;;;13.52;6.43;;;;;;;8.14;100.00;98583.84;10511820;28;20044;-79
2023/01/17 10:21:17;;;;;;;8.13;5.13;;;;;;;8.50;87.35;98595.03;10507262;28;20044;-79
2023/01/17 10:26:21;;;;;;;13.50;6.47;;;;;;;9.12;80.97;98583.09;10507955;28;20048;-79
2023/01/17 10:31:23;;;;;;;10.48;5.57;;;;;;;10.04;69.69;98580.13;10507622;28;20036;-80
2023/01/17 10:36:28;;;;;;;12.40;5.10;;;;;;;10.27;65.80;98585.63;10508594;28;20028;-79
2023/01/17 10:41:42;;;;;;;14.70;6.25;;;;;;;10.69;63.26;98585.25;10524311;28;20372;-79
2023/01/17 10:47:00;;;;;;;14.00;6.47;;;;;;;11.08;62.59;98580.41;10492066;28;20115;-79
2023/01/17 10:52:28;;;;;;;10.27;5.03;;;;;;;11.08;58.66;98575.16;10489636;28;20082;-79
2023/01/17 10:57:28;;;;;;;9.30;4.75;;;;;;;11.06;59.18;98569.91;10489998;28;20404;-79
2023/01/17 11:02:30;;;;;;;12.40;5.65;;;;;;;11.50;57.50;98557.16;10457994;28;20060;-79
2023/01/17 11:07:30;;;;;;;6.05;3.90;;;;;;;12.41;54.51;98551.50;10448581;28;20384;-79
2023/01/17 11:12:40;;;;;;;6.82;4.22;;;;;;;12.01;52.81;98555.72;10496319;28;20028;-79
2023/01/17 11:17:42;;;;;;;14.68;7.97;;;;;;;10.07;60.39;98558.34;10465046;28;20040;-79
2023/01/17 11:22:47;;;;;;;18.35;6.70;;;;;;;8.84;66.15;98551.31;10482754;28;20089;-80
2023/01/17 11:28:19;;;;;;;10.57;4.32;;;;;;;7.81;73.07;98552.78;10475314;28;20044;-79
2023/01/17 11:33:44;;;;;;;10.95;4.68;;;;;;;7.94;71.63;98547.84;10467213;28;20040;-79
2023/01/17 11:38:58;;;;;;;10.02;4.13;;;;;;;8.71;69.33;98547.59;10485093;28;20468;-78
2023/01/17 11:43:59;;;;;;;10.10;4.10;;;;;;;8.50;69.25;98553.31;10482600;28;20036;-79
2023/01/17 11:49:00;;;;;;;8.73;4.15;;;;;;;8.12;68.40;98554.28;10464729;28;20473;-79
2023/01/17 11:54:17;;;;;;;16.92;4.85;;;;;;;6.98;75.81;98550.88;10494368;28;20407;-79
2023/01/17 11:59:24;;;;;;;11.52;5.15;;;;;;;7.12;71.94;98547.72;10522695;28;20044;-78
2023/01/17 12:04:33;;;;;;;14.30;5.40;;;;;;;7.27;77.11;98537.69;10489692;28;20041;-78
2023/01/17 12:09:40;;;;;;;17.02;3.83;;;;;;;7.53;75.15;98536.53;10489307;28;20135;-79
2023/01/17 12:14:40;;;;;;;16.33;4.82;;;;;;;6.07;81.71;98535.50;10489852;28;20044;-78
2023/01/17 12:20:00;;;;;;;10.70;4.88;;;;;;;7.66;77.60;98529.88;10488334;28;20039;-78
2023/01/17 12:25:25;;;;;;;8.18;3.97;;;;;;;8.87;69.79;98521.78;10488585;28;20025;-78
2023/01/17 12:30:37;;;;;;;10.98;3.67;;;;;;;8.78;66.57;98526.00;10470950;28;20349;-78
2023/01/17 12:35:57;;;;;;;9.23;4.18;;;;;;;7.51;70.22;98522.63;10470144;28;20040;-79
2023/01/17 12:41:09;;;;;;;11.65;5.07;;;;;;;6.81;75.36;98528.78;10454257;28;20029;-79
2023/01/17 12:46:25;;;;;;;6.77;3.33;;;;;;;8.39;68.27;98521.78;10469735;28;20075;-79
2023/01/17 12:51:36;;;;;;;11.75;4.78;;;;;;;9.13;65.79;98519.63;10472527;28;20033;-78
2023/01/17 12:56:40;;;;;;;9.48;3.70;;;;;;;9.48;63.30;98515.78;10453738;28;20059;-79
2023/01/17 13:01:41;;;;;;;6.78;3.58;;;;;;;7.79;68.82;98517.16;10486705;28;20060;-78
2023/01/17 13:06:55;;;;;;;14.30;5.30;;;;;;;7.67;67.95;98516.00;10452645;28;20109;-78
2023/01/17 13:12:00;;;;;;;8.55;3.38;;;;;;;8.14;68.89;98518.72;10470505;28;20040;-78
2023/01/17 13:17:08;;;;;;;12.73;3.53;;;;;;;8.96;61.83;98501.97;10452573;28;20124;-78
2023/01/17 13:22:09;;;;;;;10.10;3.97;;;;;;;8.66;62.42;98504.91;10469450;28;20036;-78
2023/01/17 13:27:15;;;;;;;5.88;3.10;;;;;;;7.77;66.18;98508.44;10451870;28;20060;-78
2023/01/17 13:32:40;;;;;;;10.90;4.50;;;;;;;5.87;70.89;98515.88;10476694;28;20511;-78
2023/01/17 13:37:54;;;;;;;13.57;4.10;;;;;;;4.38;93.80;98511.22;10465209;28;20045;-78
2023/01/17 13:43:05;;;;;;;7.10;3.20;;;;;;;4.10;95.41;98518.03;10445979;28;20113;-78
2023/01/17 13:48:11;;;;;;;8.68;1.90;;;;;;;4.47;92.10;98523.63;10483914;28;20064;-78
2023/01/17 13:53:33;;;;;;;10.70;5.00;;;;;;;5.62;82.07;98523.78;10520216;28;20058;-78
2023/01/17 13:58:56;;;;;;;10.00;3.83;;;;;;;6.87;72.81;98528.91;10517879;28;20037;-77
2023/01/17 14:03:57;;;;;;;6.72;3.83;;;;;;;7.17;74.98;98518.41;10511610;28;20069;-77
2023/01/17 14:09:25;;;;;;;9.77;3.67;;;;;;;8.31;65.70;98520.75;10507077;28;20055;-77
2023/01/17 14:14:40;;;;;;;8.88;2.67;;;;;;;9.25;61.36;98522.41;10487144;28;20044;-79
2023/01/17 14:19:50;;;;;;;6.97;3.10;;;;;;;8.48;62.79;98528.91;10496871;28;20517;-78
2023/01/17 14:24:59;;;;;;;6.55;3.15;;;;;;;8.51;60.62;98527.25;10470677;28;20051;-78
2023/01/17 14:30:01;;;;;;;6.45;2.60;;;;;;;7.46;65.22;98523.41;10502576;28;20071;-79
2023/01/17 14:35:03;;;;;;;12.85;3.40;;;;;;;4.66;73.69;98547.56;10473346;28;20051;-78
2023/01/17 14:40:15;;;;;;;11.50;3.27;;;;;;;3.00;97.46;98544.03;10492553;28;20044;-78
2023/01/17 14:45:20;;;;;;;5.68;4.22;;;;;;;2.24;100.00;98549.50;10488538;28;20428;-79
2023/01/17 14:50:23;;;;;;;16.27;6.35;;;;;;;1.80;100.00;98551.91;10484966;28;20519;-79
2023/01/17 14:55:26;;;;;;;12.32;3.60;;;;;;;1.57;100.00;98550.84;10488108;28;20036;-79
2023/01/17 15:00:29;;;;;;;8.73;3.30;;;;;;;1.27;100.00;98549.50;10486026;28;20094;-81
2023/01/17 15:05:30;;;;;;;34.75;18.77;;;;;;;0.97;100.00;98544.63;10511062;28;20044;-79
2023/01/17 15:10:31;;;;;;;8.63;4.25;;;;;;;0.65;100.00;98555.91;10477215;28;20040;-80
2023/01/17 15:15:37;;;;;;;12.32;5.55;;;;;;;0.41;100.00;98561.59;10497425;28;20044;-80
2023/01/17 15:20:38;;;;;;;9.32;4.10;;;;;;;0.17;100.00;98563.81;10489148;28;20477;-80
2023/01/17 15:25:39;;;;;;;11.55;3.88;;;;;;;-0.11;100.00;98565.81;10458800;28;20036;-80
2023/01/17 15:31:08;;;;;;;7.32;4.40;;;;;;;-0.43;100.00;98571.81;10450170;28;20036;-80
2023/01/17 15:36:12;;;;;;;7.38;3.97;;;;;;;-0.67;100.00;98578.22;10471080;28;20115;-80
2023/01/17 15:41:14;;;;;;;9.93;4.25;;;;;;;-0.85;100.00;98587.50;10517787;28;20036;-81
2023/01/17 15:46:22;;;;;;;8.95;4.63;;;;;;;-1.02;100.00;98599.38;10492761;28;20114;-81
2023/01/17 15:51:30;;;;;;;12.07;4.65;;;;;;;-1.40;100.00;98593.78;10494574;28;20116;-79
2023/01/17 15:56:31;;;;;;;14.13;6.15;;;;;;;-1.78;100.00;98606.16;10488445;28;20041;-80
2023/01/17 16:01:32;;;;;;;9.53;5.17;;;;;;;-1.92;100.00;98605.28;10478165;28;20058;-78
2023/01/17 16:06:44;;;;;;;8.50;4.25;;;;;;;-2.21;100.00;98612.09;10493655;28;20060;-78
2023/01/17 16:11:44;;;;;;;13.13;6.53;;;;;;;-2.56;100.00;98613.31;10497203;28;20041;-78
2023/01/17 16:16:52;;;;;;;11.53;4.67;;;;;;;-2.71;100.00;98611.56;10475122;28;20041;-78
2023/01/17 16:21:55;;;;;;;15.98;6.93;;;;;;;-2.71;100.00;98611.56;10502159;28;20404;-78
2023/01/17 16:27:03;;;;;;;8.82;4.55;;;;;;;-2.75;100.00;98613.84;10509137;28;20043;-78
2023/01/17 16:32:07;;;;;;;16.58;5.55;;;;;;;-2.82;100.00;98627.91;10488600;28;20040;-79
2023/01/17 16:37:09;;;;;;;12.65;5.70;;;;;;;-3.08;100.00;98627.09;10470446;28;20092;-77
2023/01/17 16:42:09;;;;;;;12.70;6.40;;;;;;;-3.31;100.00;98635.84;10439177;28;20037;-78
2023/01/17 16:47:10;;;;;;;18.57;6.50;;;;;;;-3.43;100.00;98639.38;10460112;28;20048;-78
2023/01/17 16:52:11;;;;;;;27.50;9.13;;;;;;;-3.30;100.00;98642.75;10485196;28;20434;-79
2023/01/17 16:57:11;;;;;;;10.77;7.17;;;;;;;-3.44;100.00;98641.78;10461091;28;20041;-78
2023/01/17 17:02:13;;;;;;;11.17;7.23;;;;;;;-3.55;100.00;98641.09;10462540;28;20045;-80
2023/01/17 17:07:14;;;;;;;17.42;8.40;;;;;;;-3.62;100.00;98650.00;10461920;28;20174;-79
2023/01/17 17:12:14;;;;;;;15.07;7.13;;;;;;;-3.55;100.00;98661.56;10464780;28;20073;-78
2023/01/17 17:17:15;;;;;;;15.70;9.90;;;;;;;-3.61;100.00;98676.47;10482772;28;20043;-78
2023/01/17 17:22:16;;;;;;;13.47;9.13;;;;;;;-3.76;100.00;98683.97;10483348;28;20056;-78
2023/01/17 17:27:16;;;;;;;16.67;8.97;;;;;;;-3.70;100.00;98682.75;10472785;28;20064;-78
2023/01/17 17:32:18;;;;;;;16.63;9.90;;;;;;;-3.74;100.00;98696.09;10460002;28;20449;-78
2023/01/17 17:37:20;;;;;;;11.88;9.25;;;;;;;-3.67;100.00;98694.81;10428887;28;20706;-78
2023/01/17 17:42:20;;;;;;;19.65;12.18;;;;;;;-3.65;100.00;98700.94;10475911;28;20048;-78
2023/01/17 17:47:22;;;;;;;22.17;12.23;;;;;;;-3.76;100.00;98713.00;10479862;28;20575;-76
2023/01/17 17:52:23;;;;;;;19.20;10.75;;;;;;;-3.88;100.00;98718.13;10454464;28;20411;-78
2023/01/17 17:57:24;;;;;;;19.53;11.97;;;;;;;-3.87;100.00;98726.69;10478591;28;20040;-76
2023/01/17 18:02:24;;;;;;;21.27;10.87;;;;;;;-3.86;100.00;98733.59;10468949;28;20413;-78
2023/01/17 18:07:25;;;;;;;20.67;11.00;;;;;;;-4.04;100.00;98730.59;10477892;28;20060;-78
2023/01/17 18:12:25;;;;;;;31.17;14.77;;;;;;;-4.02;100.00;98737.63;10440039;28;20473;-78
2023/01/17 18:17:26;;;;;;;17.87;11.93;;;;;;;-4.08;100.00;98744.84;10465383;28;20094;-77
2023/01/17 18:22:27;;;;;;;16.75;11.25;;;;;;;-4.29;100.00;98739.97;10455982;28;20041;-77
2023/01/17 18:27:27;;;;;;;17.50;10.97;;;;;;;-4.51;100.00;98746.88;10491038;28;20128;-78
2023/01/17 18:32:28;;;;;;;18.97;12.43;;;;;;;-4.71;100.00;98751.41;10506814;28;20032;-78
2023/01/17 18:37:28;;;;;;;22.03;12.03;;;;;;;-4.66;100.00;98756.81;10464648;28;20044;-77
2023/01/17 18:42:30;;;;;;;18.60;10.97;;;;;;;-4.61;100.00;98758.97;10482955;28;20506;-78
2023/01/17 18:47:30;;;;;;;14.70;11.03;;;;;;;-4.85;100.00;98765.66;10460730;28;20552;-77
2023/01/17 18:52:32;;;;;;;21.17;12.27;;;;;;;-4.65;100.00;98762.06;10467618;28;20736;-78
2023/01/17 18:57:33;;;;;;;18.75;12.45;;;;;;;-4.40;100.00;98762.94;10477349;28;20032;-78
2023/01/17 19:02:33;;;;;;;20.43;13.50;;;;;;;-4.54;100.00;98772.19;10480584;28;20391;-78
2023/01/17 19:07:35;;;;;;;19.45;12.45;;;;;;;-4.83;100.00;98770.91;10479521;28;20488;-77
2023/01/17 19:12:36;;;;;;;18.97;12.00;;;;;;;-4.89;100.00;98784.09;10457400;28;20048;-77
2023/01/17 19:17:36;;;;;;;20.20;11.70;;;;;;;-4.81;100.00;98787.22;10450474;28;20032;-78
2023/01/17 19:22:38;;;;;;;26.63;15.07;;;;;;;-5.01;100.00;98789.16;10457164;28;20090;-78
2023/01/17 19:27:38;;;;;;;22.38;14.35;;;;;;;-5.13;100.00;98796.75;10454181;28;20484;-77
2023/01/17 19:32:39;;;;;;;28.27;17.07;;;;;;;-4.94;100.00;98800.72;10462477;28;20127;-77
2023/01/17 19:37:44;;;;;;;38.33;21.80;;;;;;;-4.95;100.00;98799.84;10457817;28;20465;-77
2023/01/17 19:42:44;;;;;;;35.33;23.17;;;;;;;-4.98;100.00;98821.66;10446071;28;20066;-78
2023/01/17 19:47:45;;;;;;;36.77;20.40;;;;;;;-5.00;100.00;98811.34;10459445;28;20044;-78
2023/01/17 19:52:45;;;;;;;38.83;20.97;;;;;;;-5.04;100.00;98819.56;10476480;28;20573;-78
2023/01/17 19:57:46;;;;;;;48.47;24.73;;;;;;;-5.06;100.00;98810.91;10452299;28;20060;-77
2023/01/17 20:02:46;;;;;;;41.30;23.97;;;;;;;-4.96;100.00;98818.47;10459803;28;20036;-78
2023/01/17 20:07:47;;;;;;;43.70;25.60;;;;;;;-5.03;100.00;98817.09;10451864;28;20151;-77
2023/01/17 20:12:47;;;;;;;41.77;25.50;;;;;;;-5.07;100.00;98824.44;10477884;28;20380;-79
2023/01/17 20:17:48;;;;;;;49.63;26.87;;;;;;;-5.13;100.00;98831.59;10485035;28;20048;-77
2023/01/17 20:22:49;;;;;;;38.17;25.33;;;;;;;-5.23;100.00;98842.75;10479788;28;20051;-76
2023/01/17 20:27:50;;;;;;;42.17;26.30;;;;;;;-5.14;100.00;98834.94;10501067;28;20048;-77
2023/01/17 20:32:50;;;;;;;36.37;22.17;;;;;;;-5.04;100.00;98838.28;10486659;28;20509;-76
2023/01/17 20:37:52;;;;;;;35.87;24.57;;;;;;;-4.93;100.00;98841.66;10496324;28;20123;-76
2023/01/17 20:42:53;;;;;;;38.95;22.23;;;;;;;-4.98;100.00;98847.19;10469895;28;20029;-76
2023/01/17 20:47:55;;;;;;;36.73;20.73;;;;;;;-4.83;100.00;98853.44;10485185;28;20056;-76
2023/01/17 20:52:55;;;;;;;37.33;23.23;;;;;;;-4.76;100.00;98857.38;10467411;28;20054;-78
2023/01/17 20:57:58;;;;;;;34.97;19.70;;;;;;;-4.78;100.00;98859.78;10443664;28;20037;-75
2023/01/17 21:02:58;;;;;;;40.70;24.70;;;;;;;-4.97;100.00;98860.06;10464364;28;20090;-75
2023/01/17 21:08:02;;;;;;;30.20;18.07;;;;;;;-5.13;100.00;98862.22;10457878;28;20037;-77
2023/01/17 21:13:03;;;;;;;34.33;22.88;;;;;;;-4.83;100.00;98862.78;10464527;28;20055;-76
2023/01/17 21:18:05;;;;;;;38.00;23.90;;;;;;;-4.88;100.00;98864.97;10479487;28;20037;-75
2023/01/17 21:23:08;;;;;;;;;;;;;;;-4.80;100.00;98865.56;10453141;28;20054;-77
2023/01/17 21:28:08;;;;;;;41.63;24.45;;;;;;;-4.68;100.00;98874.16;10472597;28;19932;-78
2023/01/17 21:33:09;;;;;;;36.37;22.57;;;;;;;-4.71;100.00;98871.38;10445886;28;20063;-77
2023/01/17 21:38:10;;;;;;;39.40;22.93;;;;;;;-4.84;100.00;98874.66;10472523;28;20131;-78
2023/01/17 21:43:11;;;;;;;51.93;24.77;;;;;;;-4.92;100.00;98868.97;10484417;28;20044;-78
2023/01/17 21:48:11;;;;;;;39.50;22.90;;;;;;;-4.76;100.00;98868.47;10462849;28;20485;-78
2023/01/17 21:53:12;;;;;;;41.17;25.37;;;;;;;-4.79;100.00;98868.22;10509960;28;20819;-77
2023/01/17 22:03:34;;;;;;;40.80;24.38;;;;;;;-4.74;100.00;98878.81;10499313;28;20040;-77
2023/01/17 22:08:35;;;;;;;36.25;22.65;;;;;;;-4.77;100.00;98884.53;10484926;28;20135;-78
2023/01/17 22:13:36;;;;;;;34.87;25.67;;;;;;;-4.73;100.00;98886.56;10460981;28;20036;-77
2023/01/17 22:18:37;;;;;;;49.40;27.60;;;;;;;-4.69;100.00;98894.44;10522352;28;20040;-78
2023/01/17 22:23:38;;;;;;;50.97;29.33;;;;;;;-4.70;100.00;98902.88;10485527;28;20048;-78
2023/01/17 22:28:39;;;;;;;45.15;28.45;;;;;;;-4.83;100.00;98904.50;10507038;28;20076;-78
2023/01/17 22:33:41;;;;;;;38.87;25.83;;;;;;;-5.04;100.00;98904.63;10493706;28;20501;-77
2023/01/17 22:38:42;;;;;;;39.85;25.38;;;;;;;-5.10;100.00;98916.91;10475272;28;20044;-77
2023/01/17 22:43:45;;;;;;;50.07;26.37;;;;;;;-5.09;100.00;98923.78;10493960;28;20431;-77
2023/01/17 22:48:46;;;;;;;45.15;24.60;;;;;;;-5.03;100.00;98924.25;10480415;28;20039;-78
2023/01/17 22:53:47;;;;;;;35.97;24.33;;;;;;;-5.06;100.00;98921.47;10472906;28;20040;-77
2023/01/17 22:58:48;;;;;;;35.90;23.85;;;;;;;-5.09;100.00;98911.03;10483494;28;20028;-77
2023/01/17 23:03:58;;;;;;;35.10;22.63;;;;;;;-4.99;100.00;98921.94;10468188;28;20468;-78
2023/01/17 23:09:01;;;;;;;35.95;22.48;;;;;;;-5.00;100.00;98903.22;10474173;28;20040;-77
2023/01/17 23:14:01;;;;;;;36.63;23.00;;;;;;;-5.16;100.00;98907.13;10463249;28;20039;-78
2023/01/17 23:24:21;;;;;;;33.78;21.20;;;;;;;-5.44;100.00;98914.25;10459955;28;20123;-78
2023/01/17 23:29:22;;;;;;;39.20;23.07;;;;;;;-5.49;100.00;98913.00;10478606;28;20029;-77
2023/01/17 23:34:22;;;;;;;40.20;20.07;;;;;;;-5.56;100.00;98904.00;10459898;28;20067;-78
2023/01/17 23:39:23;;;;;;;30.20;20.57;;;;;;;-5.65;100.00;98914.31;10464860;28;20043;-77
2023/01/17 23:44:30;;;;;;;31.50;20.70;;;;;;;-5.73;100.00;98917.03;10468889;28;20290;-78
2023/01/17 23:49:30;;;;;;;34.60;22.75;;;;;;;-5.78;100.00;98912.47;10458155;28;20119;-78
2023/01/17 23:54:31;;;;;;;31.87;19.63;;;;;;;-5.87;100.00;98904.09;10494782;28;20480;-77
2023/01/17 23:59:31;;;;;;;33.67;20.67;;;;;;;-5.79;100.00;98908.13;10524880;28;20036;-77
